地図

経路データ

SID SEASON NUMBER BASIN SUBBASIN NAME ISO_TIME NATURE LAT LON WMO_WIND WMO_PRES WMO_AGENCY TRACK_TYPE DIST2LAND LANDFALL IFLAG USA_AGENCY USA_ATCF_ID USA_LAT USA_LON USA_RECORD USA_STATUS USA_WIND USA_PRES USA_SSHS USA_R34_NE USA_R34_SE USA_R34_SW USA_R34_NW USA_R50_NE USA_R50_SE USA_R50_SW USA_R50_NW USA_R64_NE USA_R64_SE USA_R64_SW USA_R64_NW USA_POCI USA_ROCI USA_RMW USA_EYE TOKYO_LAT TOKYO_LON TOKYO_GRADE TOKYO_WIND TOKYO_PRES TOKYO_R50_DIR TOKYO_R50_LONG TOKYO_R50_SHORT TOKYO_R30_DIR TOKYO_R30_LONG TOKYO_R30_SHORT TOKYO_LAND CMA_LAT CMA_LON CMA_CAT CMA_WIND CMA_PRES HKO_LAT HKO_LON HKO_CAT HKO_WIND HKO_PRES NEWDELHI_LAT NEWDELHI_LON NEWDELHI_GRADE NEWDELHI_WIND NEWDELHI_PRES NEWDELHI_CI NEWDELHI_DP NEWDELHI_POCI REUNION_LAT REUNION_LON REUNION_TYPE REUNION_WIND REUNION_PRES REUNION_TNUM REUNION_CI REUNION_RMW REUNION_R34_NE REUNION_R34_SE REUNION_R34_SW REUNION_R34_NW REUNION_R50_NE REUNION_R50_SE REUNION_R50_SW REUNION_R50_NW REUNION_R64_NE REUNION_R64_SE REUNION_R64_SW REUNION_R64_NW BOM_LAT BOM_LON BOM_TYPE BOM_WIND BOM_PRES BOM_TNUM BOM_CI BOM_RMW BOM_R34_NE BOM_R34_SE BOM_R34_SW BOM_R34_NW BOM_R50_NE BOM_R50_SE BOM_R50_SW BOM_R50_NW BOM_R64_NE BOM_R64_SE BOM_R64_SW BOM_R64_NW BOM_ROCI BOM_POCI BOM_EYE BOM_POS_METHOD BOM_PRES_METHOD NADI_LAT NADI_LON NADI_CAT NADI_WIND NADI_PRES WELLINGTON_LAT WELLINGTON_LON WELLINGTON_WIND WELLINGTON_PRES DS824_LAT DS824_LON DS824_STAGE DS824_WIND DS824_PRES TD9636_LAT TD9636_LON TD9636_STAGE TD9636_WIND TD9636_PRES TD9635_LAT TD9635_LON TD9635_WIND TD9635_PRES TD9635_ROCI NEUMANN_LAT NEUMANN_LON NEUMANN_CLASS NEUMANN_WIND NEUMANN_PRES MLC_LAT MLC_LON MLC_CLASS MLC_WIND MLC_PRES USA_GUST BOM_GUST BOM_GUST_PER REUNION_GUST REUNION_GUST_PER USA_SEAHGT USA_SEARAD_NE USA_SEARAD_SE USA_SEARAD_SW USA_SEARAD_NW STORM_SPEED STORM_DIR
1962262N19092 1962 81 NI BB NOT_NAMED 1962-09-19 06:00:00 TS 19.3000 92.1000 main 122 122 O________O____ jtwc_io IO071962 19.3000 92.1000 -1 19.3000 92.1000 TC 2 278
1962262N19092 1962 81 NI BB NOT_NAMED 1962-09-19 09:00:00 TS 19.3150 91.9850 main 129 129 P________P____ IO071962 19.3150 91.9850 -1 19.3150 91.9850 TC 3 290
1962262N19092 1962 81 NI BB NOT_NAMED 1962-09-19 12:00:00 TS 19.4000 91.8000 main 137 137 O________O____ jtwc_io IO071962 19.4000 91.8000 -1 19.4000 91.8000 TC 5 302
1962262N19092 1962 81 NI BB NOT_NAMED 1962-09-19 15:00:00 TS 19.6044 91.4955 main 147 147 P________PO___ IO071962 19.6050 91.4949 -1 19.6050 91.4949 TC 19.6000 91.5000 1 8 307
1962262N19092 1962 81 NI BB NOT_NAMED 1962-09-19 18:00:00 TS 19.9112 91.0901 main 162 162 O________OP___ jtwc_io IO071962 19.9000 91.1000 -1 19.9000 91.1000 TC 19.9559 91.0505 1 10 309
1962262N19092 1962 81 NI BB NOT_NAMED 1962-09-19 21:00:00 TS 20.2635 90.6311 main 172 134 P________PP___ IO071962 20.2502 90.6353 -1 20.2502 90.6353 TC 20.2988 90.6198 1 11 310
1962262N19092 1962 81 NI BB NOT_NAMED 1962-09-20 00:00:00 TS 20.6058 90.2097 main 134 101 O________OP___ jtwc_io IO071962 20.6000 90.2000 -1 20.6000 90.2000 TC 25 20.6174 90.2291 1 9 312
1962262N19092 1962 81 NI BB NOT_NAMED 1962-09-20 03:00:00 TS 20.8815 89.9081 main 101 73 P________PO___ IO071962 20.8723 89.9122 -1 20.8723 89.9122 TC 25 20.9000 89.9000 1 7 316
1962262N19092 1962 81 NI BB NOT_NAMED 1962-09-20 06:00:00 TS 21.1132 89.6824 main 73 45 O________OP___ jtwc_io IO071962 21.1000 89.7000 -1 21.1000 89.7000 TC 25 21.1395 89.6473 1 6 317
1962262N19092 1962 81 NI BB NOT_NAMED 1962-09-20 09:00:00 TS 21.3198 89.4713 main 45 23 P________PP___ IO071962 21.3075 89.4774 -1 21.3075 89.4774 TC 25 21.3444 89.4590 1 5 318
1962262N19092 1962 81 NI BB NOT_NAMED 1962-09-20 12:00:00 TS 21.5090 89.3054 main 23 0 O________OP___ jtwc_io IO071962 21.5000 89.3000 -1 21.5000 89.3000 TC 25 21.5271 89.3163 1 5 326
1962262N19092 1962 81 NI BB NOT_NAMED 1962-09-20 15:00:00 TS 21.7050 89.1899 main 0 0 P________PO___ IO071962 21.7075 89.1849 -1 21.7075 89.1849 TC 25 21.7000 89.2000 2 4 333
1962262N19092 1962 81 NI BB NOT_NAMED 1962-09-20 18:00:00 TS 21.8926 89.0981 main 0 0 O________OP___ jtwc_io IO071962 21.9000 89.1000 -1 21.9000 89.1000 TC 25 21.8779 89.0943 2 4 334
1962262N19092 1962 81 NI BB NOT_NAMED 1962-09-20 21:00:00 TS 22.0499 89.0072 main 0 0 P________PP___ IO071962 22.0500 89.0074 -1 22.0500 89.0074 TC 30 22.0497 89.0069 2 4 331
1962262N19092 1962 81 NI BB NOT_NAMED 1962-09-21 00:00:00 TS 22.2072 88.9054 main 0 0 O________OP___ jtwc_io IO071962 22.2000 88.9000 -1 22.2000 88.9000 TC 35 22.2217 88.9161 2 4 328
1962262N19092 1962 81 NI BB NOT_NAMED 1962-09-21 03:00:00 TS 22.3950 88.7766 main 0 0 P________PO___ IO071962 22.3925 88.7650 -1 22.3925 88.7650 TC 35 22.4000 88.8000 3 5 325
1962262N19092 1962 81 NI BB NOT_NAMED 1962-09-21 06:00:00 TS 22.6003 88.6083 main 0 0 O________OP___ jtwc_io IO071962 22.6000 88.6000 -1 22.6000 88.6000 TC 35 22.6010 88.6249 3 5 321
1962262N19092 1962 81 NI BB NOT_NAMED 1962-09-21 09:00:00 TS 22.8025 88.4126 main 0 0 P________PP___ IO071962 22.8000 88.4075 -1 22.8000 88.4075 TC 35 22.8076 88.4228 3 6 317
1962262N19092 1962 81 NI BB NOT_NAMED 1962-09-21 12:00:00 TS 23.0035 88.2031 main 0 0 O________OP___ jtwc_io IO071962 23.0000 88.2000 -1 23.0000 88.2000 TC 35 23.0104 88.2092 3 6 316
1962262N19092 1962 81 NI BB NOT_NAMED 1962-09-21 15:00:00 TS 23.2050 87.9950 main 0 0 P________PO___ IO071962 23.2075 87.9925 -1 23.2075 87.9925 TC 35 23.2000 88.0000 3 5 317
1962262N19092 1962 81 NI BB NOT_NAMED 1962-09-21 18:00:00 TS 23.3907 87.8166 main 0 0 O________OP___ jtwc_io IO071962 23.4000 87.8000 -1 23.4000 87.8000 TC 35 23.3721 87.8499 3 5 320
1962262N19092 1962 81 NI BB NOT_NAMED 1962-09-21 21:00:00 TS 23.5530 87.6722 main 0 0 P________PP___ IO071962 23.5649 87.6574 -1 23.5649 87.6574 TC 35 23.5293 87.7020 3 4 317
1962262N19092 1962 81 NI BB NOT_NAMED 1962-09-22 00:00:00 TS 23.6906 87.5094 main 0 0 O________OP___ jtwc_io IO071962 23.7000 87.5000 -1 23.7000 87.5000 TC 35 23.6719 87.5281 3 4 306
1962262N19092 1962 81 NI BB NOT_NAMED 1962-09-22 03:00:00 TS 23.8049 87.2916 main 0 0 P________PO___ IO071962 23.8074 87.2874 -1 23.8074 87.2874 TC 35 23.8000 87.3000 3 5 294
1962262N19092 1962 81 NI BB NOT_NAMED 1962-09-22 06:00:00 TS 23.9049 86.9928 main 0 0 O________OP___ jtwc_io IO071962 23.9000 87.0000 -1 23.9000 87.0000 TC 35 23.9147 86.9784 3 6 288
1962262N19092 1962 81 NI BB NOT_NAMED 1962-09-22 09:00:00 TS 24.0052 86.6158 main 0 0 P________PP___ IO071962 24.0000 86.6225 -1 24.0000 86.6225 TC 35 24.0155 86.6024 3 8 285
1962262N19092 1962 81 NI BB NOT_NAMED 1962-09-22 12:00:00 TS 24.1028 86.2001 main 0 0 O________OP___ jtwc_io IO071962 24.1000 86.2000 -1 24.1000 86.2000 TC 35 24.1084 86.2002 3 8 285
1962262N19092 1962 81 NI BB NOT_NAMED 1962-09-22 15:00:00 TS 24.2000 85.7950 main 0 0 P________PO___ IO071962 24.2000 85.7925 -1 24.2000 85.7925 TC 35 24.2000 85.8000 1 8 285
1962262N19092 1962 81 NI BB NOT_NAMED 1962-09-22 18:00:00 TS 24.3027 85.4062 main 0 0 O________OP___ jtwc_io IO071962 24.3000 85.4000 -1 24.3000 85.4000 TC 35 24.3081 85.4185 1 7 286
1962262N19092 1962 81 NI BB NOT_NAMED 1962-09-22 21:00:00 TS 24.4050 85.0342 main 0 0 P________PP___ IO071962 24.4000 85.0275 -1 24.4000 85.0275 TC 30 24.4151 85.0477 1 7 287
1962262N19092 1962 81 NI BB NOT_NAMED 1962-09-23 00:00:00 TS 24.5048 84.7010 main 0 0 O________OP___ jtwc_io IO071962 24.5000 84.7000 -1 24.5000 84.7000 TC 25 24.5145 84.7029 1 6 290
1962262N19092 1962 81 NI BB NOT_NAMED 1962-09-23 03:00:00 TS 24.6099 84.4183 main 0 0 P________PO___ IO071962 24.6149 84.4275 -1 24.6149 84.4275 TC 25 24.6000 84.4000 1 5 291
1962262N19092 1962 81 NI BB NOT_NAMED 1962-09-23 06:00:00 TS 24.6853 84.1855 main 0 0 O________OP___ jtwc_io IO071962 24.7000 84.2000 -1 24.7000 84.2000 TC 25 24.6558 84.1565 1 4 283
1962262N19092 1962 81 NI BB NOT_NAMED 1962-09-23 09:00:00 TS 24.6998 83.9797 main 0 0 P________PP___ IO071962 24.6999 83.9923 -1 24.6999 83.9923 TC 25 24.6994 83.9545 1 4 275
1962262N19092 1962 81 NI BB NOT_NAMED 1962-09-23 12:00:00 TS 24.7145 83.7918 main 0 0 O________OP___ jtwc_io IO071962 24.7000 83.8000 -1 24.7000 83.8000 TC 25 24.7434 83.7753 1 4 285
1962262N19092 1962 81 NI BB NOT_NAMED 1962-09-23 15:00:00 TS 24.7900 83.6000 main 0 0 P________PO___ IO071962 24.7850 83.6000 -1 24.7850 83.6000 TC 25 24.8000 83.6000 1 4 297
1962262N19092 1962 81 NI BB NOT_NAMED 1962-09-23 18:00:00 TS 24.8952 83.3960 main 0 0 O________OP___ jtwc_io IO071962 24.9000 83.4000 -1 24.9000 83.4000 TC 25 24.8856 83.3879 1 4 299
1962262N19092 1962 81 NI BB NOT_NAMED 1962-09-23 21:00:00 TS 24.9950 83.1925 main 0 0 P________PP___ IO071962 25.0000 83.2000 -1 25.0000 83.2000 TC 25 24.9850 83.1776 1 4 299
1962262N19092 1962 81 NI BB NOT_NAMED 1962-09-24 00:00:00 TS 25.0973 82.9928 main 0 0 O________OP___ jtwc_io IO071962 25.1000 83.0000 -1 25.1000 83.0000 TC 25 25.0919 82.9785 1 4 299
1962262N19092 1962 81 NI BB NOT_NAMED 1962-09-24 03:00:00 TS 25.2000 82.7900 main 0 0 P________PO___ IO071962 25.2000 82.7850 -1 25.2000 82.7850 TC 25 25.2000 82.8000 1 4 301
1962262N19092 1962 81 NI BB NOT_NAMED 1962-09-24 06:00:00 TS 25.3013 82.6164 main 0 0 O________OP___ jtwc_io IO071962 25.3000 82.6000 -1 25.3000 82.6000 TC 25 25.3039 82.6493 1 3 307
1962262N19092 1962 81 NI BB NOT_NAMED 1962-09-24 09:00:00 TS 25.4024 82.4966 main 0 0 P________PP___ IO071962 25.4000 82.4849 -1 25.4000 82.4849 TC 25 25.4074 82.5199 1 3 316
1962262N19092 1962 81 NI BB NOT_NAMED 1962-09-24 12:00:00 TS 25.5024 82.4019 main 0 0 O________OP___ jtwc_io IO071962 25.5000 82.4000 -1 25.5000 82.4000 TC 25 25.5071 82.4056 1 3 319
1962262N19092 1962 81 NI BB NOT_NAMED 1962-09-24 15:00:00 TS 25.6050 82.3000 main 0 0 P________PO___ IO071962 25.6075 82.3000 -1 25.6075 82.3000 TC 25 25.6000 82.3000 1 3 316
1962262N19092 1962 81 NI BB NOT_NAMED 1962-09-24 18:00:00 TS 25.6886 82.2002 main 0 0 O________OP___ jtwc_io IO071962 25.7000 82.2000 -1 25.7000 82.2000 TC 25 25.6658 82.2007 1 2 308
1962262N19092 1962 81 NI BB NOT_NAMED 1962-09-24 21:00:00 TS 25.7425 82.1023 main 0 0 P________PP___ IO071962 25.7500 82.1000 -1 25.7500 82.1000 TC 25 25.7274 82.1071 1 2 302
1962262N19092 1962 81 NI BB NOT_NAMED 1962-09-25 00:00:00 TS 25.8001 82.0033 main 0 0 O________OP___ jtwc_io IO071962 25.8000 82.0000 -1 25.8000 82.0000 TC 25 25.8002 82.0100 1 2 309
1962262N19092 1962 81 NI BB NOT_NAMED 1962-09-25 03:00:00 TS 25.8850 81.9050 main 0 0 P________PO___ IO071962 25.8775 81.9074 -1 25.8775 81.9074 TC 25 25.9000 81.9000 1 3 318
1962262N19092 1962 81 NI BB NOT_NAMED 1962-09-25 06:00:00 TS 26.0152 81.7880 main 0 0 O________OP___ jtwc_io IO071962 26.0000 81.8000 -1 26.0000 81.8000 TC 25 26.0379 81.7701 1 4 323
1962262N19092 1962 81 NI BB NOT_NAMED 1962-09-25 09:00:00 TS 26.1933 81.6443 main 0 0 P________PP___ IO071962 26.1826 81.6602 -1 26.1826 81.6602 TC 25 26.2077 81.6232 1 5 325
1962262N19092 1962 81 NI BB NOT_NAMED 1962-09-25 12:00:00 TS 26.3993 81.4823 main 0 0 O________OP___ jtwc_io IO071962 26.4000 81.5000 -1 26.4000 81.5000 TC 25 26.3986 81.4647 1 5 323
1962262N19092 1962 81 NI BB NOT_NAMED 1962-09-25 15:00:00 NR 26.6000 81.3000 main 0 __________O___ IO071962 -1 TC 26.6000 81.3000 1 5 321

IBTrACS Databaseについて

本データベースは、米国NOAAが公開する1842年以降の世界の熱帯低気圧のベストトラックデータアーカイブInternational Best Track Archive for Climate Stewardship (IBTrACS)を、ウェブで閲覧しやすい形式に変換したものです。

最終更新日:2021-10-27